sensor_id;sensor_type;location;lat;lon;timestamp;temperature;humidity
66190;DHT22;52992;52.084;5.412;2022-07-23T00:00:27;21.40;55.40
66190;DHT22;52992;52.084;5.412;2022-07-23T00:02:54;21.40;55.30
66190;DHT22;52992;52.084;5.412;2022-07-23T00:05:21;21.30;55.50
66190;DHT22;52992;52.084;5.412;2022-07-23T00:07:49;21.30;55.50
66190;DHT22;52992;52.084;5.412;2022-07-23T00:10:16;21.20;55.40
66190;DHT22;52992;52.084;5.412;2022-07-23T00:12:43;21.20;55.50
66190;DHT22;52992;52.084;5.412;2022-07-23T00:15:18;21.20;55.50
66190;DHT22;52992;52.084;5.412;2022-07-23T00:17:45;21.10;55.60
66190;DHT22;52992;52.084;5.412;2022-07-23T00:20:12;21.10;56.00
66190;DHT22;52992;52.084;5.412;2022-07-23T00:22:50;21.00;56.10
66190;DHT22;52992;52.084;5.412;2022-07-23T00:25:17;21.00;56.40
66190;DHT22;52992;52.084;5.412;2022-07-23T00:27:54;21.00;56.70
66190;DHT22;52992;52.084;5.412;2022-07-23T00:30:21;21.00;57.00
66190;DHT22;52992;52.084;5.412;2022-07-23T00:32:54;21.00;57.10
66190;DHT22;52992;52.084;5.412;2022-07-23T00:35:24;21.00;56.70
66190;DHT22;52992;52.084;5.412;2022-07-23T00:37:51;21.00;56.40
66190;DHT22;52992;52.084;5.412;2022-07-23T00:40:18;21.00;56.50
66190;DHT22;52992;52.084;5.412;2022-07-23T00:42:45;21.00;56.50
66190;DHT22;52992;52.084;5.412;2022-07-23T00:45:12;20.90;56.30
66190;DHT22;52992;52.084;5.412;2022-07-23T00:47:39;20.90;56.40
66190;DHT22;52992;52.084;5.412;2022-07-23T00:50:08;20.90;56.30
66190;DHT22;52992;52.084;5.412;2022-07-23T00:52:36;20.90;56.70
66190;DHT22;52992;52.084;5.412;2022-07-23T00:55:06;20.90;57.00
66190;DHT22;52992;52.084;5.412;2022-07-23T00:57:37;20.80;57.00
66190;DHT22;52992;52.084;5.412;2022-07-23T01:00:06;20.80;56.80
66190;DHT22;52992;52.084;5.412;2022-07-23T01:02:33;20.80;57.20
66190;DHT22;52992;52.084;5.412;2022-07-23T01:05:04;20.80;57.20
66190;DHT22;52992;52.084;5.412;2022-07-23T01:07:31;20.80;57.30
66190;DHT22;52992;52.084;5.412;2022-07-23T01:09:58;20.80;56.80
66190;DHT22;52992;52.084;5.412;2022-07-23T01:12:26;20.80;56.80
66190;DHT22;52992;52.084;5.412;2022-07-23T01:14:58;20.80;56.90
66190;DHT22;52992;52.084;5.412;2022-07-23T01:17:27;20.70;56.70
66190;DHT22;52992;52.084;5.412;2022-07-23T01:19:54;20.70;56.70
66190;DHT22;52992;52.084;5.412;2022-07-23T01:22:22;20.70;56.90
66190;DHT22;52992;52.084;5.412;2022-07-23T01:24:50;20.60;56.90
66190;DHT22;52992;52.084;5.412;2022-07-23T01:27:22;20.60;57.30
66190;DHT22;52992;52.084;5.412;2022-07-23T01:29:54;20.60;57.60
66190;DHT22;52992;52.084;5.412;2022-07-23T01:32:22;20.60;57.80
66190;DHT22;52992;52.084;5.412;2022-07-23T01:34:49;20.60;57.70
66190;DHT22;52992;52.084;5.412;2022-07-23T01:37:19;20.60;57.50
66190;DHT22;52992;52.084;5.412;2022-07-23T01:39:47;20.50;57.60
66190;DHT22;52992;52.084;5.412;2022-07-23T01:42:15;20.50;57.00
66190;DHT22;52992;52.084;5.412;2022-07-23T01:44:48;20.40;56.40
66190;DHT22;52992;52.084;5.412;2022-07-23T01:47:19;20.40;56.30
66190;DHT22;52992;52.084;5.412;2022-07-23T01:49:49;20.40;56.00
66190;DHT22;52992;52.084;5.412;2022-07-23T01:52:27;20.40;56.10
66190;DHT22;52992;52.084;5.412;2022-07-23T01:54:55;20.30;56.40
66190;DHT22;52992;52.084;5.412;2022-07-23T01:57:22;20.20;56.30
66190;DHT22;52992;52.084;5.412;2022-07-23T01:59:48;20.20;56.60
66190;DHT22;52992;52.084;5.412;2022-07-23T02:02:18;20.10;56.80
66190;DHT22;52992;52.084;5.412;2022-07-23T02:04:45;20.10;56.90
66190;DHT22;52992;52.084;5.412;2022-07-23T02:07:18;20.00;57.10
66190;DHT22;52992;52.084;5.412;2022-07-23T02:09:45;20.00;57.00
66190;DHT22;52992;52.084;5.412;2022-07-23T02:12:12;20.00;56.90
66190;DHT22;52992;52.084;5.412;2022-07-23T02:14:44;20.00;57.00
66190;DHT22;52992;52.084;5.412;2022-07-23T02:17:11;20.00;57.10
66190;DHT22;52992;52.084;5.412;2022-07-23T02:19:43;19.90;57.10
66190;DHT22;52992;52.084;5.412;2022-07-23T02:22:12;19.90;57.10
66190;DHT22;52992;52.084;5.412;2022-07-23T02:24:49;19.80;56.90
66190;DHT22;52992;52.084;5.412;2022-07-23T02:27:16;19.80;56.70
66190;DHT22;52992;52.084;5.412;2022-07-23T02:29:43;19.80;56.90
66190;DHT22;52992;52.084;5.412;2022-07-23T02:32:13;19.80;57.30
66190;DHT22;52992;52.084;5.412;2022-07-23T02:34:40;19.80;57.50
66190;DHT22;52992;52.084;5.412;2022-07-23T02:37:06;19.70;57.60
66190;DHT22;52992;52.084;5.412;2022-07-23T02:39:35;19.70;58.10
66190;DHT22;52992;52.084;5.412;2022-07-23T02:42:03;19.70;58.40
66190;DHT22;52992;52.084;5.412;2022-07-23T02:44:31;19.70;58.40
66190;DHT22;52992;52.084;5.412;2022-07-23T02:46:58;19.70;58.30
66190;DHT22;52992;52.084;5.412;2022-07-23T02:49:25;19.60;58.20
66190;DHT22;52992;52.084;5.412;2022-07-23T02:51:52;19.70;58.50
66190;DHT22;52992;52.084;5.412;2022-07-23T02:54:20;19.70;58.40
66190;DHT22;52992;52.084;5.412;2022-07-23T02:56:46;19.60;58.40
66190;DHT22;52992;52.084;5.412;2022-07-23T02:59:13;19.70;58.50
66190;DHT22;52992;52.084;5.412;2022-07-23T03:01:41;19.70;58.30
66190;DHT22;52992;52.084;5.412;2022-07-23T03:04:08;19.70;57.80
66190;DHT22;52992;52.084;5.412;2022-07-23T03:06:35;19.60;57.40
66190;DHT22;52992;52.084;5.412;2022-07-23T03:09:05;19.60;57.40
66190;DHT22;52992;52.084;5.412;2022-07-23T03:11:32;19.60;57.40
66190;DHT22;52992;52.084;5.412;2022-07-23T03:13:59;19.60;57.60
66190;DHT22;52992;52.084;5.412;2022-07-23T03:16:26;19.60;57.70
66190;DHT22;52992;52.084;5.412;2022-07-23T03:18:53;19.50;57.60
66190;DHT22;52992;52.084;5.412;2022-07-23T03:21:20;19.50;57.20
66190;DHT22;52992;52.084;5.412;2022-07-23T03:23:47;19.50;57.10
66190;DHT22;52992;52.084;5.412;2022-07-23T03:26:14;19.50;57.30
66190;DHT22;52992;52.084;5.412;2022-07-23T03:28:41;19.40;57.30
66190;DHT22;52992;52.084;5.412;2022-07-23T03:31:08;19.40;57.60
66190;DHT22;52992;52.084;5.412;2022-07-23T03:33:37;19.40;57.60
66190;DHT22;52992;52.084;5.412;2022-07-23T03:36:04;19.40;57.90
66190;DHT22;52992;52.084;5.412;2022-07-23T03:38:39;19.40;57.90
66190;DHT22;52992;52.084;5.412;2022-07-23T03:41:07;19.40;58.10
66190;DHT22;52992;52.084;5.412;2022-07-23T03:43:34;19.40;58.30
66190;DHT22;52992;52.084;5.412;2022-07-23T03:46:00;19.40;58.30
66190;DHT22;52992;52.084;5.412;2022-07-23T03:48:28;19.40;58.40
66190;DHT22;52992;52.084;5.412;2022-07-23T03:50:55;19.30;58.50
66190;DHT22;52992;52.084;5.412;2022-07-23T03:53:22;19.30;58.50
66190;DHT22;52992;52.084;5.412;2022-07-23T03:55:49;19.30;58.50
66190;DHT22;52992;52.084;5.412;2022-07-23T03:58:16;19.30;58.60
66190;DHT22;52992;52.084;5.412;2022-07-23T04:00:43;19.30;58.50
66190;DHT22;52992;52.084;5.412;2022-07-23T04:03:10;19.30;58.60
66190;DHT22;52992;52.084;5.412;2022-07-23T04:05:37;19.30;58.50
66190;DHT22;52992;52.084;5.412;2022-07-23T04:08:07;19.30;58.70
66190;DHT22;52992;52.084;5.412;2022-07-23T04:10:38;19.30;58.50
66190;DHT22;52992;52.084;5.412;2022-07-23T04:13:06;19.30;58.50
66190;DHT22;52992;52.084;5.412;2022-07-23T04:15:33;19.40;58.40
66190;DHT22;52992;52.084;5.412;2022-07-23T04:18:00;19.30;58.10
66190;DHT22;52992;52.084;5.412;2022-07-23T04:20:37;19.40;58.00
66190;DHT22;52992;52.084;5.412;2022-07-23T04:23:07;19.40;57.70
66190;DHT22;52992;52.084;5.412;2022-07-23T04:25:34;19.40;57.40
66190;DHT22;52992;52.084;5.412;2022-07-23T04:28:01;19.40;57.50
66190;DHT22;52992;52.084;5.412;2022-07-23T04:30:28;19.40;57.50
66190;DHT22;52992;52.084;5.412;2022-07-23T04:32:55;19.40;57.50
66190;DHT22;52992;52.084;5.412;2022-07-23T04:35:26;19.40;57.80
66190;DHT22;52992;52.084;5.412;2022-07-23T04:38:00;19.50;58.10
66190;DHT22;52992;52.084;5.412;2022-07-23T04:40:29;19.50;58.20
66190;DHT22;52992;52.084;5.412;2022-07-23T04:42:56;19.60;58.20
66190;DHT22;52992;52.084;5.412;2022-07-23T04:45:24;19.60;58.20
66190;DHT22;52992;52.084;5.412;2022-07-23T04:47:56;19.60;58.20
66190;DHT22;52992;52.084;5.412;2022-07-23T04:50:24;19.70;58.40
66190;DHT22;52992;52.084;5.412;2022-07-23T04:52:55;19.70;59.00
66190;DHT22;52992;52.084;5.412;2022-07-23T04:55:22;19.80;57.80
66190;DHT22;52992;52.084;5.412;2022-07-23T04:57:49;19.80;57.60
66190;DHT22;52992;52.084;5.412;2022-07-23T05:00:16;19.80;57.50
66190;DHT22;52992;52.084;5.412;2022-07-23T05:02:43;19.90;57.40
66190;DHT22;52992;52.084;5.412;2022-07-23T05:05:10;19.90;57.50
66190;DHT22;52992;52.084;5.412;2022-07-23T05:07:39;20.00;57.60
66190;DHT22;52992;52.084;5.412;2022-07-23T05:10:07;20.10;57.40
66190;DHT22;52992;52.084;5.412;2022-07-23T05:12:34;20.10;57.40
66190;DHT22;52992;52.084;5.412;2022-07-23T05:15:01;20.20;57.50
66190;DHT22;52992;52.084;5.412;2022-07-23T05:17:31;20.20;57.60
66190;DHT22;52992;52.084;5.412;2022-07-23T05:20:03;20.30;57.80
66190;DHT22;52992;52.084;5.412;2022-07-23T05:22:30;20.30;57.80
66190;DHT22;52992;52.084;5.412;2022-07-23T05:24:58;20.40;58.00
66190;DHT22;52992;52.084;5.412;2022-07-23T05:27:25;20.50;58.10
66190;DHT22;52992;52.084;5.412;2022-07-23T05:29:52;20.50;58.00
66190;DHT22;52992;52.084;5.412;2022-07-23T05:32:20;20.60;58.10
66190;DHT22;52992;52.084;5.412;2022-07-23T05:34:57;20.70;58.20
66190;DHT22;52992;52.084;5.412;2022-07-23T05:37:24;20.80;58.20
66190;DHT22;52992;52.084;5.412;2022-07-23T05:39:51;20.80;58.10
66190;DHT22;52992;52.084;5.412;2022-07-23T05:42:20;20.90;58.20
66190;DHT22;52992;52.084;5.412;2022-07-23T05:44:48;21.00;58.10
66190;DHT22;52992;52.084;5.412;2022-07-23T05:47:15;21.10;58.30
66190;DHT22;52992;52.084;5.412;2022-07-23T05:49:43;21.20;58.20
66190;DHT22;52992;52.084;5.412;2022-07-23T05:52:34;21.30;58.30
66190;DHT22;52992;52.084;5.412;2022-07-23T05:55:19;21.40;58.30
66190;DHT22;52992;52.084;5.412;2022-07-23T05:57:46;21.40;58.50
66190;DHT22;52992;52.084;5.412;2022-07-23T06:00:13;21.50;58.80
66190;DHT22;52992;52.084;5.412;2022-07-23T06:02:41;21.60;58.70
66190;DHT22;52992;52.084;5.412;2022-07-23T06:05:10;21.70;58.60
66190;DHT22;52992;52.084;5.412;2022-07-23T06:07:38;21.80;58.30
66190;DHT22;52992;52.084;5.412;2022-07-23T06:10:05;21.90;58.10
66190;DHT22;52992;52.084;5.412;2022-07-23T06:12:32;22.00;57.80
66190;DHT22;52992;52.084;5.412;2022-07-23T06:15:00;22.10;57.40
66190;DHT22;52992;52.084;5.412;2022-07-23T06:17:28;22.20;57.20
66190;DHT22;52992;52.084;5.412;2022-07-23T06:19:55;22.20;57.30
66190;DHT22;52992;52.084;5.412;2022-07-23T06:22:22;22.30;56.90
66190;DHT22;52992;52.084;5.412;2022-07-23T06:24:50;22.40;56.60
66190;DHT22;52992;52.084;5.412;2022-07-23T06:27:20;22.40;56.60
66190;DHT22;52992;52.084;5.412;2022-07-23T06:29:52;22.50;57.00
66190;DHT22;52992;52.084;5.412;2022-07-23T06:32:19;22.60;56.60
66190;DHT22;52992;52.084;5.412;2022-07-23T06:34:46;22.60;57.20
66190;DHT22;52992;52.084;5.412;2022-07-23T06:37:14;22.70;57.00
66190;DHT22;52992;52.084;5.412;2022-07-23T06:39:45;22.80;57.20
66190;DHT22;52992;52.084;5.412;2022-07-23T06:42:12;22.80;56.50
66190;DHT22;52992;52.084;5.412;2022-07-23T06:44:44;23.00;57.00
66190;DHT22;52992;52.084;5.412;2022-07-23T06:47:14;23.10;56.80
66190;DHT22;52992;52.084;5.412;2022-07-23T06:49:42;23.20;56.70
66190;DHT22;52992;52.084;5.412;2022-07-23T06:52:11;23.20;55.50
66190;DHT22;52992;52.084;5.412;2022-07-23T06:54:38;23.30;54.60
66190;DHT22;52992;52.084;5.412;2022-07-23T06:57:08;23.30;54.00
66190;DHT22;52992;52.084;5.412;2022-07-23T06:59:36;23.40;54.40
66190;DHT22;52992;52.084;5.412;2022-07-23T07:02:07;23.50;55.10
66190;DHT22;52992;52.084;5.412;2022-07-23T07:04:38;23.50;54.30
66190;DHT22;52992;52.084;5.412;2022-07-23T07:07:05;23.60;53.70
66190;DHT22;52992;52.084;5.412;2022-07-23T07:09:32;23.70;54.10
66190;DHT22;52992;52.084;5.412;2022-07-23T07:11:59;23.70;54.60
66190;DHT22;52992;52.084;5.412;2022-07-23T07:14:27;23.80;54.00
66190;DHT22;52992;52.084;5.412;2022-07-23T07:16:55;23.90;53.10
66190;DHT22;52992;52.084;5.412;2022-07-23T07:19:25;24.00;53.10
66190;DHT22;52992;52.084;5.412;2022-07-23T07:21:52;24.00;51.30
66190;DHT22;52992;52.084;5.412;2022-07-23T07:24:19;24.00;52.70
66190;DHT22;52992;52.084;5.412;2022-07-23T07:26:46;24.10;52.50
66190;DHT22;52992;52.084;5.412;2022-07-23T07:29:13;24.10;53.00
66190;DHT22;52992;52.084;5.412;2022-07-23T07:31:40;24.20;54.80
66190;DHT22;52992;52.084;5.412;2022-07-23T07:34:07;24.30;53.00
66190;DHT22;52992;52.084;5.412;2022-07-23T07:36:35;24.30;52.10
66190;DHT22;52992;52.084;5.412;2022-07-23T07:39:04;24.30;51.30
66190;DHT22;52992;52.084;5.412;2022-07-23T07:41:31;24.40;52.80
66190;DHT22;52992;52.084;5.412;2022-07-23T07:43:58;24.40;52.30
66190;DHT22;52992;52.084;5.412;2022-07-23T07:46:25;24.50;52.00
66190;DHT22;52992;52.084;5.412;2022-07-23T07:48:54;24.50;50.70
66190;DHT22;52992;52.084;5.412;2022-07-23T07:51:24;24.60;50.50
66190;DHT22;52992;52.084;5.412;2022-07-23T07:53:51;24.50;49.00
66190;DHT22;52992;52.084;5.412;2022-07-23T07:56:18;24.50;49.00
66190;DHT22;52992;52.084;5.412;2022-07-23T07:58:46;24.40;49.70
66190;DHT22;52992;52.084;5.412;2022-07-23T08:01:13;24.40;49.00
66190;DHT22;52992;52.084;5.412;2022-07-23T08:03:40;24.40;50.80
66190;DHT22;52992;52.084;5.412;2022-07-23T08:06:08;24.40;48.90
66190;DHT22;52992;52.084;5.412;2022-07-23T08:08:35;24.40;49.60
66190;DHT22;52992;52.084;5.412;2022-07-23T08:11:02;24.50;50.20
66190;DHT22;52992;52.084;5.412;2022-07-23T08:13:29;24.50;48.40
66190;DHT22;52992;52.084;5.412;2022-07-23T08:15:55;24.60;47.50
66190;DHT22;52992;52.084;5.412;2022-07-23T08:18:22;24.60;47.30
66190;DHT22;52992;52.084;5.412;2022-07-23T08:20:49;24.60;46.30
66190;DHT22;52992;52.084;5.412;2022-07-23T08:23:16;24.60;46.50
66190;DHT22;52992;52.084;5.412;2022-07-23T08:25:46;24.60;46.60
66190;DHT22;52992;52.084;5.412;2022-07-23T08:28:14;24.60;46.70
66190;DHT22;52992;52.084;5.412;2022-07-23T08:30:43;24.60;47.80
66190;DHT22;52992;52.084;5.412;2022-07-23T08:33:12;24.70;47.00
66190;DHT22;52992;52.084;5.412;2022-07-23T08:35:59;24.80;47.80
66190;DHT22;52992;52.084;5.412;2022-07-23T08:38:26;24.90;46.20
66190;DHT22;52992;52.084;5.412;2022-07-23T08:40:55;24.90;44.70
66190;DHT22;52992;52.084;5.412;2022-07-23T08:43:27;24.90;45.00
66190;DHT22;52992;52.084;5.412;2022-07-23T08:45:56;24.90;46.20
66190;DHT22;52992;52.084;5.412;2022-07-23T08:48:26;25.00;47.60
66190;DHT22;52992;52.084;5.412;2022-07-23T08:50:58;25.10;48.90
66190;DHT22;52992;52.084;5.412;2022-07-23T08:53:29;25.30;49.50
66190;DHT22;52992;52.084;5.412;2022-07-23T08:55:58;25.40;48.10
66190;DHT22;52992;52.084;5.412;2022-07-23T08:58:26;25.60;48.80
66190;DHT22;52992;52.084;5.412;2022-07-23T09:00:54;25.70;47.20
66190;DHT22;52992;52.084;5.412;2022-07-23T09:03:26;25.80;47.90
66190;DHT22;52992;52.084;5.412;2022-07-23T09:05:54;26.00;49.10
66190;DHT22;52992;52.084;5.412;2022-07-23T09:08:45;26.20;48.70
66190;DHT22;52992;52.084;5.412;2022-07-23T09:11:16;26.30;48.60
66190;DHT22;52992;52.084;5.412;2022-07-23T09:13:49;26.50;48.70
66190;DHT22;52992;52.084;5.412;2022-07-23T09:16:28;26.70;46.70
66190;DHT22;52992;52.084;5.412;2022-07-23T09:18:58;26.90;47.10
66190;DHT22;52992;52.084;5.412;2022-07-23T09:21:27;26.90;42.30
66190;DHT22;52992;52.084;5.412;2022-07-23T09:24:18;27.00;45.00
66190;DHT22;52992;52.084;5.412;2022-07-23T09:26:48;27.00;46.50
66190;DHT22;52992;52.084;5.412;2022-07-23T09:29:26;27.20;46.60
66190;DHT22;52992;52.084;5.412;2022-07-23T09:32:00;27.30;45.70
66190;DHT22;52992;52.084;5.412;2022-07-23T09:34:30;27.30;43.60
66190;DHT22;52992;52.084;5.412;2022-07-23T09:39:40;27.40;42.40
66190;DHT22;52992;52.084;5.412;2022-07-23T09:44:45;27.60;43.60
66190;DHT22;52992;52.084;5.412;2022-07-23T09:47:14;27.70;40.90
66190;DHT22;52992;52.084;5.412;2022-07-23T09:50:00;27.80;39.90
66190;DHT22;52992;52.084;5.412;2022-07-23T09:52:29;27.90;40.80
66190;DHT22;52992;52.084;5.412;2022-07-23T09:55:05;28.00;42.10
66190;DHT22;52992;52.084;5.412;2022-07-23T09:57:32;28.10;43.80
66190;DHT22;52992;52.084;5.412;2022-07-23T10:00:05;28.30;43.60
66190;DHT22;52992;52.084;5.412;2022-07-23T10:02:33;28.50;43.40
66190;DHT22;52992;52.084;5.412;2022-07-23T10:05:19;28.60;41.30
66190;DHT22;52992;52.084;5.412;2022-07-23T10:08:11;28.70;39.40
66190;DHT22;52992;52.084;5.412;2022-07-23T10:10:41;28.80;39.00
66190;DHT22;52992;52.084;5.412;2022-07-23T10:13:29;28.90;40.20
66190;DHT22;52992;52.084;5.412;2022-07-23T10:16:16;29.00;38.70
66190;DHT22;52992;52.084;5.412;2022-07-23T10:18:53;29.10;38.40
66190;DHT22;52992;52.084;5.412;2022-07-23T10:21:45;29.20;38.30
66190;DHT22;52992;52.084;5.412;2022-07-23T10:24:30;29.20;36.60
66190;DHT22;52992;52.084;5.412;2022-07-23T10:33:15;29.30;38.20
66190;DHT22;52992;52.084;5.412;2022-07-23T10:38:25;29.70;40.20
66190;DHT22;52992;52.084;5.412;2022-07-23T10:41:02;30.10;40.20
66190;DHT22;52992;52.084;5.412;2022-07-23T10:43:29;30.40;37.80
66190;DHT22;52992;52.084;5.412;2022-07-23T10:46:23;30.60;37.20
66190;DHT22;52992;52.084;5.412;2022-07-23T10:49:24;30.80;38.90
66190;DHT22;52992;52.084;5.412;2022-07-23T10:54:46;31.00;35.40
66190;DHT22;52992;52.084;5.412;2022-07-23T10:57:14;31.20;35.90
66190;DHT22;52992;52.084;5.412;2022-07-23T11:02:31;31.60;35.50
66190;DHT22;52992;52.084;5.412;2022-07-23T11:05:07;31.80;37.10
66190;DHT22;52992;52.084;5.412;2022-07-23T11:07:35;31.90;36.40
66190;DHT22;52992;52.084;5.412;2022-07-23T11:10:03;32.20;34.00
66190;DHT22;52992;52.084;5.412;2022-07-23T11:17:32;33.10;32.60
66190;DHT22;52992;52.084;5.412;2022-07-23T11:22:39;34.00;34.40
66190;DHT22;52992;52.084;5.412;2022-07-23T11:25:06;34.50;32.10
66190;DHT22;52992;52.084;5.412;2022-07-23T11:27:40;34.70;28.90
66190;DHT22;52992;52.084;5.412;2022-07-23T11:30:09;34.70;29.30
66190;DHT22;52992;52.084;5.412;2022-07-23T11:32:40;34.80;29.40
66190;DHT22;52992;52.084;5.412;2022-07-23T11:35:25;34.10;30.10
66190;DHT22;52992;52.084;5.412;2022-07-23T11:38:02;33.10;33.10
66190;DHT22;52992;52.084;5.412;2022-07-23T11:40:29;32.60;31.90
66190;DHT22;52992;52.084;5.412;2022-07-23T11:42:58;32.70;33.80
66190;DHT22;52992;52.084;5.412;2022-07-23T11:45:31;32.20;35.50
66190;DHT22;52992;52.084;5.412;2022-07-23T11:47:58;31.70;35.50
66190;DHT22;52992;52.084;5.412;2022-07-23T11:50:25;31.30;36.60
66190;DHT22;52992;52.084;5.412;2022-07-23T11:52:54;31.40;37.10
66190;DHT22;52992;52.084;5.412;2022-07-23T11:55:21;32.10;37.60
66190;DHT22;52992;52.084;5.412;2022-07-23T11:57:50;33.10;35.70
66190;DHT22;52992;52.084;5.412;2022-07-23T12:00:29;33.60;35.40
66190;DHT22;52992;52.084;5.412;2022-07-23T12:02:59;33.40;31.50
66190;DHT22;52992;52.084;5.412;2022-07-23T12:05:32;33.10;32.20
66190;DHT22;52992;52.084;5.412;2022-07-23T12:08:00;32.50;31.30
66190;DHT22;52992;52.084;5.412;2022-07-23T12:10:28;32.00;32.60
66190;DHT22;52992;52.084;5.412;2022-07-23T12:13:00;31.90;35.30
66190;DHT22;52992;52.084;5.412;2022-07-23T12:15:34;31.90;34.60
66190;DHT22;52992;52.084;5.412;2022-07-23T12:18:01;31.70;33.60
66190;DHT22;52992;52.084;5.412;2022-07-23T12:20:31;31.50;35.40
66190;DHT22;52992;52.084;5.412;2022-07-23T12:23:00;31.30;35.40
66190;DHT22;52992;52.084;5.412;2022-07-23T12:25:30;31.20;37.90
66190;DHT22;52992;52.084;5.412;2022-07-23T12:33:31;33.40;34.90
66190;DHT22;52992;52.084;5.412;2022-07-23T12:36:01;34.20;32.80
66190;DHT22;52992;52.084;5.412;2022-07-23T12:38:47;34.80;32.30
66190;DHT22;52992;52.084;5.412;2022-07-23T12:41:15;35.30;33.70
66190;DHT22;52992;52.084;5.412;2022-07-23T12:43:44;35.40;33.00
66190;DHT22;52992;52.084;5.412;2022-07-23T12:46:21;35.30;33.90
66190;DHT22;52992;52.084;5.412;2022-07-23T12:51:30;35.90;31.80
66190;DHT22;52992;52.084;5.412;2022-07-23T12:54:08;36.30;32.00
66190;DHT22;52992;52.084;5.412;2022-07-23T12:56:37;36.60;29.20
66190;DHT22;52992;52.084;5.412;2022-07-23T12:59:10;36.80;27.90
66190;DHT22;52992;52.084;5.412;2022-07-23T13:01:42;36.80;27.00
66190;DHT22;52992;52.084;5.412;2022-07-23T13:04:15;36.90;27.40
66190;DHT22;52992;52.084;5.412;2022-07-23T13:06:46;36.60;26.70
66190;DHT22;52992;52.084;5.412;2022-07-23T13:09:17;35.50;27.40
66190;DHT22;52992;52.084;5.412;2022-07-23T13:11:47;34.50;28.50
66190;DHT22;52992;52.084;5.412;2022-07-23T13:14:16;34.10;29.40
66190;DHT22;52992;52.084;5.412;2022-07-23T13:16:48;34.40;30.00
66190;DHT22;52992;52.084;5.412;2022-07-23T13:19:15;35.00;30.50
66190;DHT22;52992;52.084;5.412;2022-07-23T13:21:45;35.60;31.00
66190;DHT22;52992;52.084;5.412;2022-07-23T13:24:12;36.10;30.60
66190;DHT22;52992;52.084;5.412;2022-07-23T13:26:40;36.50;29.60
66190;DHT22;52992;52.084;5.412;2022-07-23T13:29:07;36.90;30.20
66190;DHT22;52992;52.084;5.412;2022-07-23T13:31:37;36.90;29.00
66190;DHT22;52992;52.084;5.412;2022-07-23T13:34:06;36.40;28.80
66190;DHT22;52992;52.084;5.412;2022-07-23T13:36:35;35.60;30.40
66190;DHT22;52992;52.084;5.412;2022-07-23T13:39:03;35.40;32.00
66190;DHT22;52992;52.084;5.412;2022-07-23T13:41:32;35.70;31.40
66190;DHT22;52992;52.084;5.412;2022-07-23T13:43:59;36.00;28.50
66190;DHT22;52992;52.084;5.412;2022-07-23T13:46:26;35.80;27.60
66190;DHT22;52992;52.084;5.412;2022-07-23T13:48:53;35.00;28.00
66190;DHT22;52992;52.084;5.412;2022-07-23T13:51:20;34.40;30.00
66190;DHT22;52992;52.084;5.412;2022-07-23T13:53:47;34.30;29.80
66190;DHT22;52992;52.084;5.412;2022-07-23T13:56:15;33.90;28.70
66190;DHT22;52992;52.084;5.412;2022-07-23T13:58:42;33.30;29.30
66190;DHT22;52992;52.084;5.412;2022-07-23T14:01:09;32.70;29.50
66190;DHT22;52992;52.084;5.412;2022-07-23T14:03:36;32.20;31.50
66190;DHT22;52992;52.084;5.412;2022-07-23T14:06:03;31.70;33.40
66190;DHT22;52992;52.084;5.412;2022-07-23T14:08:42;31.40;34.90
66190;DHT22;52992;52.084;5.412;2022-07-23T14:11:10;31.50;35.50
66190;DHT22;52992;52.084;5.412;2022-07-23T14:13:37;32.10;36.60
66190;DHT22;52992;52.084;5.412;2022-07-23T14:16:04;33.10;35.30
66190;DHT22;52992;52.084;5.412;2022-07-23T14:18:31;33.90;33.80
66190;DHT22;52992;52.084;5.412;2022-07-23T14:21:00;33.80;33.10
66190;DHT22;52992;52.084;5.412;2022-07-23T14:23:28;33.30;33.80
66190;DHT22;52992;52.084;5.412;2022-07-23T14:25:56;33.10;33.80
66190;DHT22;52992;52.084;5.412;2022-07-23T14:28:23;33.60;31.90
66190;DHT22;52992;52.084;5.412;2022-07-23T14:30:50;33.60;33.00
66190;DHT22;52992;52.084;5.412;2022-07-23T14:33:17;33.20;32.60
66190;DHT22;52992;52.084;5.412;2022-07-23T14:35:44;32.70;32.60
66190;DHT22;52992;52.084;5.412;2022-07-23T14:38:11;32.20;32.90
66190;DHT22;52992;52.084;5.412;2022-07-23T14:40:40;32.00;32.50
66190;DHT22;52992;52.084;5.412;2022-07-23T14:43:08;31.70;33.50
66190;DHT22;52992;52.084;5.412;2022-07-23T14:45:38;31.40;33.60
66190;DHT22;52992;52.084;5.412;2022-07-23T14:48:05;31.20;33.30
66190;DHT22;52992;52.084;5.412;2022-07-23T14:50:32;31.10;33.40
66190;DHT22;52992;52.084;5.412;2022-07-23T14:52:58;31.40;33.30
66190;DHT22;52992;52.084;5.412;2022-07-23T14:55:25;31.30;33.70
66190;DHT22;52992;52.084;5.412;2022-07-23T14:57:52;31.10;33.10
66190;DHT22;52992;52.084;5.412;2022-07-23T15:00:19;30.90;33.60
66190;DHT22;52992;52.084;5.412;2022-07-23T15:02:50;30.70;34.60
66190;DHT22;52992;52.084;5.412;2022-07-23T15:05:21;30.50;34.40
66190;DHT22;52992;52.084;5.412;2022-07-23T15:07:48;30.30;34.90
66190;DHT22;52992;52.084;5.412;2022-07-23T15:10:16;30.30;36.20
66190;DHT22;52992;52.084;5.412;2022-07-23T15:12:49;30.30;36.70
66190;DHT22;52992;52.084;5.412;2022-07-23T15:15:16;30.30;35.40
66190;DHT22;52992;52.084;5.412;2022-07-23T15:17:44;30.20;35.10
66190;DHT22;52992;52.084;5.412;2022-07-23T15:20:11;30.10;36.00
66190;DHT22;52992;52.084;5.412;2022-07-23T15:22:41;30.10;36.10
66190;DHT22;52992;52.084;5.412;2022-07-23T15:25:08;30.20;35.40
66190;DHT22;52992;52.084;5.412;2022-07-23T15:27:38;30.40;36.20
66190;DHT22;52992;52.084;5.412;2022-07-23T15:30:05;30.70;35.00
66190;DHT22;52992;52.084;5.412;2022-07-23T15:32:34;30.60;36.20
66190;DHT22;52992;52.084;5.412;2022-07-23T15:35:01;30.50;36.50
66190;DHT22;52992;52.084;5.412;2022-07-23T15:37:31;30.30;36.00
66190;DHT22;52992;52.084;5.412;2022-07-23T15:40:01;30.10;36.70
66190;DHT22;52992;52.084;5.412;2022-07-23T15:42:31;29.90;36.50
66190;DHT22;52992;52.084;5.412;2022-07-23T15:44:58;29.80;37.60
66190;DHT22;52992;52.084;5.412;2022-07-23T15:47:25;29.70;39.40
66190;DHT22;52992;52.084;5.412;2022-07-23T15:49:51;29.70;38.00
66190;DHT22;52992;52.084;5.412;2022-07-23T15:52:18;29.70;37.70
66190;DHT22;52992;52.084;5.412;2022-07-23T15:54:47;29.70;38.90
66190;DHT22;52992;52.084;5.412;2022-07-23T15:57:14;29.70;38.50
66190;DHT22;52992;52.084;5.412;2022-07-23T15:59:41;29.90;38.60
66190;DHT22;52992;52.084;5.412;2022-07-23T16:02:08;30.00;39.00
66190;DHT22;52992;52.084;5.412;2022-07-23T16:04:35;30.00;39.40
66190;DHT22;52992;52.084;5.412;2022-07-23T16:07:02;29.90;38.90
66190;DHT22;52992;52.084;5.412;2022-07-23T16:09:30;29.90;39.00
66190;DHT22;52992;52.084;5.412;2022-07-23T16:11:57;29.90;39.80
66190;DHT22;52992;52.084;5.412;2022-07-23T16:14:24;29.80;39.90
66190;DHT22;52992;52.084;5.412;2022-07-23T16:16:51;29.70;40.50
66190;DHT22;52992;52.084;5.412;2022-07-23T16:19:18;29.60;39.10